Search the data

BODC Cruise Metadata Report for RRS John Biscoe cruise JB03

Introduction

This report collates information from the BODC cruise inventory and oceanographic databases. It presents

Cruise Inventory Information

Long name RRS John Biscoe cruise JB03
Short name JB03
Objectives and Narrative
Ship RRS John Biscoe
Departure Port
Departure Date 1981-11-15
Arrival Port
Arrival Date 1982-03-03
Principal Scientist(s) Barry Heywood (British Antarctic Survey)
Responsible Organisation British Antarctic Survey
Associated Project(s)
IHB Sea Areas Visited
Marsden Squares Visited
Work Area Description
Work Area Bounding Polygon
Southern Limit unknown
Northern Limit unknown
Western Limit unknown
Eastern Limit unknown

Cruise Inventory Datasets

No information on datasets is currently available for this cruise

Cruise Inventory Mooring/Buoy Operations

No information on datasets is currently available

Summary of BODC Data Holdings for the Cruise

National Oceanographic Database

Summary

# Series Instrument Description Parameters
219 CTD/STD cast Salinity of the water column
Temperature of the water column
Vertical spatial coordinates
1 CTD/STD cast Reference numbers
Salinity of the water column
Temperature of the water column
Vertical spatial coordinates

Note: Parameter terms are taken from the BODC Parameter Discovery Vocabulary XML (SKOS)

Full List

BODC Reference Instrument Description Date/Time Location  
73357 CTD/STD cast 1981-11-25 23:25Z 53° 24' S, 36° 33' W Click for more
73658 CTD/STD cast 1981-12-07 01:55Z 55° 22' S, 37° 31' W Click for more
73683 CTD/STD cast 1981-12-09 00:58Z 56° 3' S, 37° 16' W Click for more
74348 CTD/STD cast 1982-01-04 13:28Z 53° 54' S, 36° 15' W Click for more
74742 CTD/STD cast 1982-01-12 09:28Z 53° 49' S, 36° 4' W Click for more
74778 CTD/STD cast 1982-01-13 08:02Z 53° 52' S, 36° 2' W Click for more
74791 CTD/STD cast 1982-01-13 09:48Z 53° 49' S, 36° 5' W Click for more
74809 CTD/STD cast 1982-01-13 14:42Z 53° 49' S, 35° 57' W Click for more
74822 CTD/STD cast 1982-01-14 09:49Z 53° 37' S, 35° 55' W Click for more
74846 CTD/STD cast 1982-01-14 21:24Z 53° 40' S, 35° 59' W Click for more
74871 CTD/STD cast 1982-01-15 07:51Z 53° 39' S, 36° 4' W Click for more
74895 CTD/STD cast 1982-01-15 23:09Z 53° 53' S, 36° 18' W Click for more
74914 CTD/STD cast 1982-01-16 07:37Z 53° 54' S, 36° 15' W Click for more
74938 CTD/STD cast 1982-01-16 15:15Z 53° 49' S, 36° 22' W Click for more
74975 CTD/STD cast 1982-01-17 08:10Z 53° 52' S, 36° 22' W Click for more
74999 CTD/STD cast 1982-01-17 14:46Z 53° 55' S, 36° 8' W Click for more
75014 CTD/STD cast 1982-02-02 05:21Z 60° 52' S, 55° 7' W Click for more
75051 CTD/STD cast 1982-02-02 20:04Z 60° 52' S, 55° 7' W Click for more
75075 CTD/STD cast 1982-02-03 10:33Z 60° 52' S, 55° 7' W Click for more
75099 CTD/STD cast 1982-02-04 06:58Z 60° 52' S, 55° 9' W Click for more
75118 CTD/STD cast 1982-02-05 23:25Z 59° 43' S, 50° 57' W Click for more
75143 CTD/STD cast 1982-02-06 19:12Z 60° 46' S, 50° 58' W Click for more
75167 CTD/STD cast 1982-02-07 14:47Z 61° 30' S, 54° 58' W Click for more
75180 CTD/STD cast 1982-02-08 18:44Z 61° 30' S, 55° 0' W Click for more
75211 CTD/STD cast 1982-02-09 18:28Z 62° 15' S, 58° 18' W Click for more
75235 CTD/STD cast 1982-02-10 06:19Z 62° 45' S, 57° 37' W Click for more
75247 CTD/STD cast 1982-02-10 11:58Z 63° 0' S, 57° 18' W Click for more
75259 CTD/STD cast 1982-02-10 19:36Z 63° 34' S, 56° 25' W Click for more
75272 CTD/STD cast 1982-02-11 17:59Z 63° 0' S, 58° 23' W Click for more
75296 CTD/STD cast 1982-02-12 05:54Z 63° 6' S, 60° 28' W Click for more
75315 CTD/STD cast 1982-02-12 18:32Z 62° 55' S, 61° 10' W Click for more
75339 CTD/STD cast 1982-02-13 14:50Z 62° 59' S, 66° 34' W Click for more
75352 CTD/STD cast 1982-02-14 05:57Z 64° 7' S, 65° 17' W Click for more
75376 CTD/STD cast 1982-02-14 15:53Z 64° 57' S, 65° 10' W Click for more
75407 CTD/STD cast 1982-02-15 03:02Z 65° 49' S, 67° 10' W Click for more
75420 CTD/STD cast 1982-02-15 14:00Z 66° 37' S, 68° 28' W Click for more
75432 CTD/STD cast 1982-02-15 19:24Z 66° 7' S, 68° 10' W Click for more
75456 CTD/STD cast 1982-02-16 23:15Z 66° 13' S, 68° 9' W Click for more
75468 CTD/STD cast 1982-02-17 23:58Z 64° 56' S, 64° 22' W Click for more
75493 CTD/STD cast 1982-02-18 14:30Z 64° 33' S, 62° 35' W Click for more
75512 CTD/STD cast 1982-02-19 03:37Z 63° 55' S, 61° 40' W Click for more
75536 CTD/STD cast 1982-02-19 14:30Z 63° 13' S, 60° 37' W Click for more
75561 CTD/STD cast 1982-02-20 01:17Z 62° 43' S, 59° 51' W Click for more
75585 CTD/STD cast 1982-02-21 20:55Z 61° 58' S, 56° 23' W Click for more
75604 CTD/STD cast 1982-02-22 13:28Z 62° 42' S, 56° 49' W Click for more
75641 CTD/STD cast 1982-02-23 17:36Z 62° 36' S, 55° 15' W Click for more
75665 CTD/STD cast 1982-02-24 19:07Z 63° 58' S, 49° 58' W Click for more
75689 CTD/STD cast 1982-02-25 13:00Z 63° 54' S, 49° 52' W Click for more
75721 CTD/STD cast 1982-02-28 06:33Z 60° 29' S, 46° 42' W Click for more
273648 CTD/STD cast 1981-11-24 18:53Z to 1981-11-24 19:06Z 53° 12' S, 35° 23' W Click for more
273661 CTD/STD cast 1981-11-25 04:30Z to 1981-11-25 05:58Z 53° 37' S, 35° 49' W Click for more
273673 CTD/STD cast 1981-11-25 12:53Z to 1981-11-25 13:50Z 54° 3' S, 36° 15' W Click for more
273685 CTD/STD cast 1981-11-25 18:29Z to 1981-11-25 19:10Z 53° 49' S, 36° 57' W Click for more
273697 CTD/STD cast 1981-11-26 08:15Z to 1981-11-26 10:28Z 52° 58' S, 36° 9' W Click for more
273704 CTD/STD cast 1981-11-27 05:54Z to 1981-11-27 08:23Z 52° 13' S, 38° 16' W Click for more
273716 CTD/STD cast 1981-11-27 15:20Z to 1981-11-27 17:06Z 52° 39' S, 38° 40' W Click for more
273728 CTD/STD cast 1981-11-27 22:03Z to 1981-11-27 23:54Z 53° 4' S, 39° 4' W Click for more
273741 CTD/STD cast 1981-11-28 05:08Z to 1981-11-28 07:02Z 53° 30' S, 39° 30' W Click for more
273753 CTD/STD cast 1981-11-28 12:30Z to 1981-11-28 13:52Z 53° 56' S, 39° 55' W Click for more
273765 CTD/STD cast 1981-11-28 19:27Z to 1981-11-28 21:25Z 54° 22' S, 40° 20' W Click for more
273777 CTD/STD cast 1981-11-29 03:32Z to 1981-11-29 05:52Z 54° 48' S, 40° 46' W Click for more
273789 CTD/STD cast 1981-11-30 09:46Z to 1981-11-30 12:08Z 54° 37' S, 39° 39' W Click for more
273790 CTD/STD cast 1981-11-30 16:00Z to 1981-11-30 16:47Z 54° 11' S, 39° 14' W Click for more
273808 CTD/STD cast 1981-11-30 21:44Z to 1981-11-30 22:40Z 53° 45' S, 38° 48' W Click for more
273821 CTD/STD cast 1981-12-01 05:52Z to 1981-12-01 07:27Z 53° 19' S, 38° 24' W Click for more
273833 CTD/STD cast 1981-12-01 12:20Z to 1981-12-01 14:10Z 52° 54' S, 37° 58' W Click for more
273845 CTD/STD cast 1981-12-01 19:34Z to 1981-12-01 21:33Z 52° 28' S, 37° 34' W Click for more
273857 CTD/STD cast 1981-12-02 11:28Z to 1981-12-02 13:30Z 52° 43' S, 36° 51' W Click for more
273869 CTD/STD cast 1981-12-02 20:35Z to 1981-12-02 22:25Z 53° 7' S, 37° 15' W Click for more
273870 CTD/STD cast 1981-12-03 03:37Z to 1981-12-03 04:58Z 53° 34' S, 37° 41' W Click for more
273882 CTD/STD cast 1981-12-03 11:32Z to 1981-12-03 12:15Z 53° 53' S, 38° 4' W Click for more
273894 CTD/STD cast 1981-12-03 18:26Z to 1981-12-03 19:15Z 54° 26' S, 38° 31' W Click for more
273901 CTD/STD cast 1981-12-04 00:20Z to 1981-12-04 02:12Z 54° 52' S, 38° 56' W Click for more
273913 CTD/STD cast 1981-12-04 09:17Z to 1981-12-04 11:42Z 55° 18' S, 39° 22' W Click for more
273925 CTD/STD cast 1981-12-05 00:43Z to 1981-12-05 02:42Z 55° 3' S, 40° 5' W Click for more
273937 CTD/STD cast 1981-12-05 12:35Z to 1981-12-05 14:54Z 55° 33' S, 38° 41' W Click for more
273949 CTD/STD cast 1981-12-05 21:30Z to 1981-12-05 23:18Z 55° 7' S, 38° 15' W Click for more
273950 CTD/STD cast 1981-12-06 04:41Z to 1981-12-06 05:29Z 54° 41' S, 37° 50' W Click for more
273962 CTD/STD cast 1981-12-06 10:13Z to 1981-12-06 10:56Z 54° 19' S, 37° 28' W Click for more
273974 CTD/STD cast 1981-12-06 14:55Z to 1981-12-06 15:35Z 54° 32' S, 36° 50' W Click for more
273986 CTD/STD cast 1981-12-06 20:08Z to 1981-12-06 20:52Z 54° 56' S, 37° 6' W Click for more
273998 CTD/STD cast 1981-12-08 08:02Z to 1981-12-08 10:32Z 55° 48' S, 37° 59' W Click for more
274001 CTD/STD cast 1981-12-09 10:35Z to 1981-12-09 12:25Z 55° 37' S, 36° 51' W Click for more
274013 CTD/STD cast 1981-12-09 16:13Z to 1981-12-09 17:45Z 55° 11' S, 36° 24' W Click for more
274025 CTD/STD cast 1981-12-09 23:03Z to 1981-12-09 23:50Z 54° 55' S, 35° 31' W Click for more
274037 CTD/STD cast 1981-12-10 07:12Z to 1981-12-10 07:55Z 54° 20' S, 35° 32' W Click for more
274049 CTD/STD cast 1981-12-10 12:50Z to 1981-12-10 14:39Z 53° 46' S, 35° 28' W Click for more
274050 CTD/STD cast 1981-12-10 20:24Z to 1981-12-10 22:56Z 53° 28' S, 34° 40' W Click for more
274062 CTD/STD cast 1981-12-11 12:08Z to 1981-12-11 14:24Z 53° 43' S, 33° 58' W Click for more
274074 CTD/STD cast 1981-12-11 21:34Z to 1981-12-11 23:26Z 54° 9' S, 34° 23' W Click for more
274086 CTD/STD cast 1981-12-12 05:22Z to 1981-12-12 06:31Z 54° 34' S, 34° 48' W Click for more
274098 CTD/STD cast 1981-12-12 11:37Z to 1981-12-12 12:27Z 55° 0' S, 35° 14' W Click for more
274105 CTD/STD cast 1981-12-12 22:20Z to 1981-12-12 23:17Z 55° 26' S, 35° 40' W Click for more
274117 CTD/STD cast 1981-12-13 05:18Z to 1981-12-13 07:10Z 55° 52' S, 36° 7' W Click for more
274129 CTD/STD cast 1981-12-13 12:40Z to 1981-12-13 15:08Z 56° 19' S, 36° 31' W Click for more
274130 CTD/STD cast 1981-12-14 06:53Z to 1981-12-14 09:23Z 56° 33' S, 35° 50' W Click for more
274142 CTD/STD cast 1981-12-14 15:22Z to 1981-12-14 17:12Z 56° 7' S, 35° 24' W Click for more
274154 CTD/STD cast 1981-12-15 05:14Z to 1981-12-15 06:48Z 55° 41' S, 34° 57' W Click for more
274166 CTD/STD cast 1981-12-15 12:33Z to 1981-12-15 13:54Z 55° 15' S, 34° 31' W Click for more
274178 CTD/STD cast 1981-12-15 19:26Z to 1981-12-15 20:55Z 54° 49' S, 34° 5' W Click for more
274191 CTD/STD cast 1981-12-16 02:38Z to 1981-12-16 03:34Z 54° 24' S, 33° 39' W Click for more
274209 CTD/STD cast 1981-12-16 10:35Z to 1981-12-16 13:00Z 53° 57' S, 33° 13' W Click for more
274210 CTD/STD cast 1981-12-17 07:13Z to 1981-12-17 09:48Z 54° 12' S, 32° 30' W Click for more
274222 CTD/STD cast 1981-12-17 16:03Z to 1981-12-17 17:50Z 54° 39' S, 32° 55' W Click for more
274234 CTD/STD cast 1981-12-18 00:15Z to 1981-12-18 02:04Z 55° 4' S, 33° 21' W Click for more
274246 CTD/STD cast 1981-12-18 08:58Z to 1981-12-18 10:59Z 55° 30' S, 33° 48' W Click for more
274258 CTD/STD cast 1981-12-18 16:05Z to 1981-12-18 17:53Z 55° 56' S, 34° 15' W Click for more
274271 CTD/STD cast 1981-12-18 23:38Z to 1981-12-19 01:22Z 56° 23' S, 34° 39' W Click for more
274283 CTD/STD cast 1981-12-19 06:50Z to 1981-12-19 09:25Z 56° 48' S, 35° 7' W Click for more
274295 CTD/STD cast 1981-12-29 00:11Z to 1981-12-29 01:11Z 53° 32' S, 36° 5' W Click for more
274302 CTD/STD cast 1981-12-29 02:35Z to 1981-12-29 03:42Z 53° 41' S, 36° 4' W Click for more
274314 CTD/STD cast 1981-12-29 05:18Z to 1981-12-29 06:19Z 53° 50' S, 36° 4' W Click for more
274326 CTD/STD cast 1981-12-29 07:40Z to 1981-12-29 08:25Z 53° 58' S, 36° 3' W Click for more
274338 CTD/STD cast 1981-12-29 15:43Z to 1981-12-29 16:26Z 53° 59' S, 36° 21' W Click for more
274351 CTD/STD cast 1981-12-29 17:54Z to 1981-12-29 18:34Z 53° 49' S, 36° 19' W Click for more
274363 CTD/STD cast 1981-12-29 21:57Z to 1981-12-29 22:55Z 53° 41' S, 36° 19' W Click for more
274375 CTD/STD cast 1981-12-30 00:25Z to 1981-12-30 01:29Z 53° 31' S, 36° 18' W Click for more
274387 CTD/STD cast 1981-12-30 16:14Z to 1981-12-30 17:17Z 53° 30' S, 36° 34' W Click for more
274399 CTD/STD cast 1981-12-30 18:58Z to 1981-12-30 19:38Z 53° 42' S, 36° 34' W Click for more
274406 CTD/STD cast 1981-12-30 20:55Z to 1981-12-30 21:42Z 53° 51' S, 36° 34' W Click for more
274418 CTD/STD cast 1981-12-30 23:17Z to 1981-12-31 00:02Z 54° 0' S, 36° 35' W Click for more
274431 CTD/STD cast 1982-01-01 03:41Z to 1982-01-01 04:21Z 54° 0' S, 35° 49' W Click for more
274443 CTD/STD cast 1982-01-01 05:39Z to 1982-01-01 06:28Z 53° 49' S, 35° 49' W Click for more
274455 CTD/STD cast 1982-01-01 07:58Z to 1982-01-01 08:53Z 53° 40' S, 35° 49' W Click for more
274467 CTD/STD cast 1982-01-01 10:18Z to 1982-01-01 11:18Z 53° 31' S, 35° 49' W Click for more
274479 CTD/STD cast 1982-01-02 01:26Z to 1982-01-02 02:10Z 53° 54' S, 36° 15' W Click for more
274480 CTD/STD cast 1982-01-02 05:51Z to 1982-01-02 06:14Z 53° 54' S, 36° 13' W Click for more
274492 CTD/STD cast 1982-01-02 09:18Z to 1982-01-02 09:38Z 53° 54' S, 36° 15' W Click for more
274511 CTD/STD cast 1982-01-02 13:12Z to 1982-01-02 13:50Z 53° 55' S, 36° 14' W Click for more
274523 CTD/STD cast 1982-01-02 17:46Z to 1982-01-02 18:08Z 53° 54' S, 36° 14' W Click for more
274535 CTD/STD cast 1982-01-02 21:13Z to 1982-01-02 21:35Z 53° 55' S, 36° 22' W Click for more
274547 CTD/STD cast 1982-01-02 22:20Z to 1982-01-02 22:35Z 53° 55' S, 36° 14' W Click for more
274559 CTD/STD cast 1982-01-03 01:26Z to 1982-01-03 02:05Z 53° 54' S, 36° 15' W Click for more
274560 CTD/STD cast 1982-01-03 05:38Z to 1982-01-03 06:00Z 53° 54' S, 36° 15' W Click for more
274572 CTD/STD cast 1982-01-03 09:53Z to 1982-01-03 10:17Z 53° 54' S, 36° 14' W Click for more
274584 CTD/STD cast 1982-01-03 13:20Z to 1982-01-03 13:57Z 53° 54' S, 36° 14' W Click for more
274596 CTD/STD cast 1982-01-03 17:15Z to 1982-01-03 17:38Z 53° 55' S, 36° 15' W Click for more
274603 CTD/STD cast 1982-01-03 21:54Z to 1982-01-03 22:17Z 53° 54' S, 36° 14' W Click for more
274615 CTD/STD cast 1982-01-04 01:38Z to 1982-01-04 02:17Z 53° 55' S, 36° 14' W Click for more
274627 CTD/STD cast 1982-01-04 05:34Z to 1982-01-04 06:00Z 53° 55' S, 36° 14' W Click for more
274639 CTD/STD cast 1982-01-04 09:30Z to 1982-01-04 09:51Z 53° 54' S, 36° 13' W Click for more
274640 CTD/STD cast 1982-01-04 17:14Z to 1982-01-04 17:40Z 53° 55' S, 36° 13' W Click for more
274652 CTD/STD cast 1982-01-04 21:52Z to 1982-01-04 22:15Z 53° 54' S, 36° 15' W Click for more
274664 CTD/STD cast 1982-01-05 01:12Z to 1982-01-05 02:00Z 53° 55' S, 36° 15' W Click for more
274676 CTD/STD cast 1982-01-05 05:31Z to 1982-01-05 05:52Z 53° 55' S, 36° 14' W Click for more
274688 CTD/STD cast 1982-01-05 09:40Z to 1982-01-05 10:02Z 53° 55' S, 36° 13' W Click for more
274707 CTD/STD cast 1982-01-05 13:45Z to 1982-01-05 14:26Z 53° 54' S, 36° 15' W Click for more
274719 CTD/STD cast 1982-01-05 17:36Z to 1982-01-05 18:00Z 53° 55' S, 36° 15' W Click for more
274720 CTD/STD cast 1982-01-05 21:38Z to 1982-01-05 22:02Z 53° 55' S, 36° 14' W Click for more
274732 CTD/STD cast 1982-01-06 01:37Z to 1982-01-06 02:23Z 53° 54' S, 36° 14' W Click for more
274744 CTD/STD cast 1982-01-06 06:39Z to 1982-01-06 07:02Z 53° 55' S, 36° 14' W Click for more
274756 CTD/STD cast 1982-01-06 09:39Z to 1982-01-06 10:02Z 53° 54' S, 36° 14' W Click for more
274768 CTD/STD cast 1982-01-06 13:17Z to 1982-01-06 14:02Z 53° 54' S, 36° 15' W Click for more
274781 CTD/STD cast 1982-01-06 17:12Z to 1982-01-06 17:36Z 53° 55' S, 36° 14' W Click for more
274793 CTD/STD cast 1982-01-06 22:24Z to 1982-01-06 22:46Z 53° 55' S, 36° 13' W Click for more
274800 CTD/STD cast 1982-01-07 01:58Z to 1982-01-07 02:32Z 53° 54' S, 36° 15' W Click for more
274812 CTD/STD cast 1982-01-07 05:45Z to 1982-01-07 06:12Z 53° 55' S, 36° 13' W Click for more
274824 CTD/STD cast 1982-01-07 09:26Z to 1982-01-07 09:55Z 53° 55' S, 36° 13' W Click for more
274836 CTD/STD cast 1982-01-07 13:30Z to 1982-01-07 14:17Z 53° 54' S, 36° 14' W Click for more
274848 CTD/STD cast 1982-01-07 18:23Z to 1982-01-07 18:45Z 53° 55' S, 36° 14' W Click for more
274861 CTD/STD cast 1982-01-07 21:21Z to 1982-01-07 21:47Z 53° 55' S, 36° 13' W Click for more
274873 CTD/STD cast 1982-01-09 02:05Z to 1982-01-09 02:52Z 53° 59' S, 36° 34' W Click for more
274885 CTD/STD cast 1982-01-09 04:04Z to 1982-01-09 04:51Z 53° 49' S, 36° 35' W Click for more
274897 CTD/STD cast 1982-01-09 05:58Z to 1982-01-09 06:44Z 53° 40' S, 36° 35' W Click for more
274904 CTD/STD cast 1982-01-09 07:58Z to 1982-01-09 09:02Z 53° 32' S, 36° 34' W Click for more
274916 CTD/STD cast 1982-01-09 22:12Z to 1982-01-09 23:38Z 53° 32' S, 36° 19' W Click for more
274928 CTD/STD cast 1982-01-10 05:14Z to 1982-01-10 06:00Z 53° 42' S, 36° 22' W Click for more
274941 CTD/STD cast 1982-01-10 07:25Z to 1982-01-10 08:19Z 53° 50' S, 36° 19' W Click for more
274953 CTD/STD cast 1982-01-10 09:49Z to 1982-01-10 10:31Z 53° 59' S, 36° 19' W Click for more
274965 CTD/STD cast 1982-01-10 23:37Z to 1982-01-11 00:34Z 54° 0' S, 36° 3' W Click for more
274977 CTD/STD cast 1982-01-11 02:13Z to 1982-01-11 03:13Z 53° 50' S, 36° 4' W Click for more
274989 CTD/STD cast 1982-01-11 05:05Z to 1982-01-11 06:18Z 53° 41' S, 36° 4' W Click for more
274990 CTD/STD cast 1982-01-11 07:26Z to 1982-01-11 08:42Z 53° 31' S, 36° 4' W Click for more
275004 CTD/STD cast 1982-01-11 17:46Z to 1982-01-11 19:03Z 53° 32' S, 35° 49' W Click for more
275016 CTD/STD cast 1982-01-11 20:16Z to 1982-01-11 21:34Z 53° 41' S, 35° 49' W Click for more
275028 CTD/STD cast 1982-01-12 01:00Z to 1982-01-12 01:55Z 53° 59' S, 35° 48' W Click for more
275041 CTD/STD cast 1982-01-12 06:43Z to 1982-01-12 07:38Z 53° 47' S, 36° 9' W Click for more
275053 CTD/STD cast 1982-01-12 15:20Z to 1982-01-12 15:45Z 53° 51' S, 36° 10' W Click for more
275065 CTD/STD cast 1982-01-13 03:29Z to 1982-01-13 04:12Z 53° 51' S, 36° 4' W Click for more
275077 CTD/STD cast 1982-01-13 21:09Z to 1982-01-13 21:39Z 53° 51' S, 35° 55' W Click for more
275089 CTD/STD cast 1982-01-14 16:00Z to 1982-01-14 16:25Z 53° 42' S, 35° 55' W Click for more
275090 CTD/STD cast 1982-01-15 02:55Z to 1982-01-15 04:13Z 53° 39' S, 36° 5' W Click for more
275108 CTD/STD cast 1982-01-15 09:37Z to 1982-01-15 11:08Z 53° 38' S, 36° 19' W Click for more
275121 CTD/STD cast 1982-01-16 03:26Z to 1982-01-16 03:53Z 53° 53' S, 36° 21' W Click for more
275133 CTD/STD cast 1982-01-16 10:10Z to 1982-01-16 11:03Z 53° 50' S, 36° 30' W Click for more
275145 CTD/STD cast 1982-01-16 20:39Z to 1982-01-16 21:00Z 53° 49' S, 36° 31' W Click for more
275157 CTD/STD cast 1982-01-16 23:42Z to 1982-01-17 00:31Z 53° 50' S, 36° 32' W Click for more
275169 CTD/STD cast 1982-01-17 10:09Z to 1982-01-17 11:10Z 53° 55' S, 36° 9' W Click for more
275170 CTD/STD cast 1982-02-02 02:39Z to 1982-02-02 03:12Z 60° 51' S, 55° 8' W Click for more
275182 CTD/STD cast 1982-02-02 06:05Z to 1982-02-02 07:19Z 60° 52' S, 55° 9' W Click for more
275194 CTD/STD cast 1982-02-02 12:45Z to 1982-02-02 13:24Z 60° 52' S, 55° 7' W Click for more
275201 CTD/STD cast 1982-02-03 04:05Z to 1982-02-03 06:05Z 60° 51' S, 55° 8' W Click for more
275213 CTD/STD cast 1982-02-03 22:45Z to 1982-02-03 23:32Z 60° 51' S, 55° 8' W Click for more
275225 CTD/STD cast 1982-02-05 10:48Z to 1982-02-05 13:06Z 59° 15' S, 51° 0' W Click for more
275237 CTD/STD cast 1982-02-06 09:33Z to 1982-02-06 11:05Z 60° 14' S, 50° 59' W Click for more
275249 CTD/STD cast 1982-02-07 10:56Z to 1982-02-07 11:47Z 61° 14' S, 54° 45' W Click for more
275250 CTD/STD cast 1982-02-08 06:23Z to 1982-02-08 07:06Z 61° 30' S, 55° 0' W Click for more
275262 CTD/STD cast 1982-02-09 07:26Z to 1982-02-09 08:24Z 61° 55' S, 56° 47' W Click for more
275274 CTD/STD cast 1982-02-09 21:18Z to 1982-02-09 22:47Z 62° 30' S, 57° 57' W Click for more
275286 CTD/STD cast 1982-02-10 23:15Z to 1982-02-11 00:27Z 63° 27' S, 56° 42' W Click for more
275298 CTD/STD cast 1982-02-12 01:05Z to 1982-02-12 01:55Z 63° 17' S, 59° 45' W Click for more
275305 CTD/STD cast 1982-02-12 11:21Z to 1982-02-12 12:03Z 62° 57' S, 60° 39' W Click for more
275317 CTD/STD cast 1982-02-12 22:07Z to 1982-02-12 23:20Z 63° 2' S, 62° 9' W Click for more
275329 CTD/STD cast 1982-02-14 00:42Z to 1982-02-14 01:40Z 63° 45' S, 65° 42' W Click for more
275330 CTD/STD cast 1982-02-14 10:14Z to 1982-02-14 11:15Z 64° 30' S, 64° 49' W Click for more
275342 CTD/STD cast 1982-02-14 21:40Z to 1982-02-14 22:07Z 65° 24' S, 66° 8' W Click for more
275354 CTD/STD cast 1982-02-15 07:37Z to 1982-02-15 08:31Z 66° 10' S, 68° 10' W Click for more
275366 CTD/STD cast 1982-02-16 08:20Z to 1982-02-16 08:45Z 66° 7' S, 68° 11' W Click for more
275378 CTD/STD cast 1982-02-18 08:12Z to 1982-02-18 08:40Z 64° 51' S, 63° 54' W Click for more
275391 CTD/STD cast 1982-02-18 20:25Z to 1982-02-18 21:07Z 64° 10' S, 62° 51' W Click for more
275409 CTD/STD cast 1982-02-19 10:00Z to 1982-02-19 10:49Z 63° 31' S, 61° 5' W Click for more
275410 CTD/STD cast 1982-02-19 20:40Z to 1982-02-19 21:07Z 62° 58' S, 60° 38' W Click for more
275422 CTD/STD cast 1982-02-20 07:02Z to 1982-02-20 07:53Z 62° 28' S, 59° 3' W Click for more
275434 CTD/STD cast 1982-02-22 06:32Z to 1982-02-22 07:42Z 62° 20' S, 56° 37' W Click for more
275446 CTD/STD cast 1982-02-22 19:07Z to 1982-02-22 19:57Z 63° 4' S, 57° 7' W Click for more
275458 CTD/STD cast 1982-02-22 23:10Z to 1982-02-23 00:34Z 63° 27' S, 56° 43' W Click for more
275471 CTD/STD cast 1982-02-23 23:47Z to 1982-02-24 01:09Z 62° 30' S, 53° 45' W Click for more
275483 CTD/STD cast 1982-02-25 02:00Z to 1982-02-25 02:26Z 63° 54' S, 49° 51' W Click for more
275495 CTD/STD cast 1982-02-26 23:10Z to 1982-02-27 01:43Z 62° 8' S, 49° 5' W Click for more
275502 CTD/STD cast 1982-02-27 15:57Z to 1982-02-27 17:48Z 60° 33' S, 48° 4' W Click for more

Project Database

# Events Gear Type Parameters Held
84 CTD frame plus rosette sampler Silicate concentration parameters in the water column
Phosphate concentration parameters in the water column
Nitrate concentration parameters in the water column

Note: Parameter terms are taken from the BODC Parameter Discovery Vocabulary XML (SKOS)

References

Track Charts

No track charts currently available

Reports

No reports currently available